sensor_id;sensor_type;location;lat;lon;timestamp;pressure;altitude;pressure_sealevel;temperature;humidity
43115;BME280;28727;50.068;14.452;2023-11-19T00:00:50;99553.59;;;4.20;74.77
43115;BME280;28727;50.068;14.452;2023-11-19T00:03:24;99541.28;;;4.10;75.84
43115;BME280;28727;50.068;14.452;2023-11-19T00:05:56;99528.31;;;4.09;75.54
43115;BME280;28727;50.068;14.452;2023-11-19T00:08:28;99521.44;;;4.08;75.75
43115;BME280;28727;50.068;14.452;2023-11-19T00:11:03;99512.75;;;4.07;75.60
43115;BME280;28727;50.068;14.452;2023-11-19T00:13:35;99507.34;;;3.99;76.45
43115;BME280;28727;50.068;14.452;2023-11-19T00:16:07;99495.94;;;4.00;76.42
43115;BME280;28727;50.068;14.452;2023-11-19T00:18:41;99491.50;;;4.01;76.25
43115;BME280;28727;50.068;14.452;2023-11-19T00:21:13;99485.31;;;4.02;76.17
43115;BME280;28727;50.068;14.452;2023-11-19T00:23:44;99478.19;;;4.04;76.12
43115;BME280;28727;50.068;14.452;2023-11-19T00:26:16;99486.75;;;4.06;76.41
43115;BME280;28727;50.068;14.452;2023-11-19T00:28:54;99474.50;;;4.06;77.13
43115;BME280;28727;50.068;14.452;2023-11-19T00:31:27;99468.69;;;4.03;76.52
43115;BME280;28727;50.068;14.452;2023-11-19T00:33:59;99458.13;;;4.04;76.31
43115;BME280;28727;50.068;14.452;2023-11-19T00:36:31;99451.63;;;3.99;76.92
43115;BME280;28727;50.068;14.452;2023-11-19T00:39:03;99450.53;;;4.01;76.75
43115;BME280;28727;50.068;14.452;2023-11-19T00:41:35;99449.94;;;3.98;76.48
43115;BME280;28727;50.068;14.452;2023-11-19T00:44:07;99447.34;;;3.98;76.67
43115;BME280;28727;50.068;14.452;2023-11-19T00:46:38;99439.50;;;3.98;77.27
43115;BME280;28727;50.068;14.452;2023-11-19T00:49:11;99440.22;;;4.00;76.91
43115;BME280;28727;50.068;14.452;2023-11-19T00:51:43;99422.75;;;4.00;77.13
43115;BME280;28727;50.068;14.452;2023-11-19T00:54:17;99420.38;;;3.97;76.98
43115;BME280;28727;50.068;14.452;2023-11-19T00:56:49;99421.59;;;3.93;77.21
43115;BME280;28727;50.068;14.452;2023-11-19T00:59:23;99414.59;;;3.94;77.24
43115;BME280;28727;50.068;14.452;2023-11-19T01:01:55;99413.38;;;3.98;76.51
43115;BME280;28727;50.068;14.452;2023-11-19T01:04:28;99416.69;;;4.00;77.08
43115;BME280;28727;50.068;14.452;2023-11-19T01:07:02;99420.13;;;4.00;77.27
43115;BME280;28727;50.068;14.452;2023-11-19T01:09:35;99416.22;;;3.95;77.21
43115;BME280;28727;50.068;14.452;2023-11-19T01:12:08;99412.81;;;3.94;77.32
43115;BME280;28727;50.068;14.452;2023-11-19T01:14:40;99408.25;;;3.96;76.56
43115;BME280;28727;50.068;14.452;2023-11-19T01:17:15;99386.06;;;3.91;77.25
43115;BME280;28727;50.068;14.452;2023-11-19T01:19:48;99392.00;;;3.93;77.71
43115;BME280;28727;50.068;14.452;2023-11-19T01:22:21;99377.03;;;3.95;78.18
43115;BME280;28727;50.068;14.452;2023-11-19T01:24:53;99379.41;;;3.98;77.56
43115;BME280;28727;50.068;14.452;2023-11-19T01:27:27;99376.91;;;3.96;77.66
43115;BME280;28727;50.068;14.452;2023-11-19T01:29:59;99356.59;;;4.00;78.05
43115;BME280;28727;50.068;14.452;2023-11-19T01:32:31;99366.72;;;3.93;77.89
43115;BME280;28727;50.068;14.452;2023-11-19T01:35:04;99363.06;;;3.85;78.25
43115;BME280;28727;50.068;14.452;2023-11-19T01:37:36;99348.09;;;3.87;78.73
43115;BME280;28727;50.068;14.452;2023-11-19T01:40:08;99325.16;;;3.90;78.34
43115;BME280;28727;50.068;14.452;2023-11-19T01:42:43;99335.34;;;3.93;78.27
43115;BME280;28727;50.068;14.452;2023-11-19T01:45:26;99322.97;;;3.95;78.07
43115;BME280;28727;50.068;14.452;2023-11-19T01:48:03;99323.13;;;3.94;78.17
43115;BME280;28727;50.068;14.452;2023-11-19T01:50:37;99312.69;;;3.94;78.83
43115;BME280;28727;50.068;14.452;2023-11-19T01:53:10;99293.56;;;3.93;79.18
43115;BME280;28727;50.068;14.452;2023-11-19T01:55:49;99286.16;;;3.98;78.16
43115;BME280;28727;50.068;14.452;2023-11-19T01:58:22;99298.38;;;3.98;78.82
43115;BME280;28727;50.068;14.452;2023-11-19T02:00:54;99313.94;;;3.99;79.45
43115;BME280;28727;50.068;14.452;2023-11-19T02:03:34;99325.59;;;3.95;80.01
43115;BME280;28727;50.068;14.452;2023-11-19T02:06:06;99314.63;;;4.01;78.70
43115;BME280;28727;50.068;14.452;2023-11-19T02:08:44;99310.38;;;4.00;79.65
43115;BME280;28727;50.068;14.452;2023-11-19T02:11:16;99302.97;;;4.05;78.86
43115;BME280;28727;50.068;14.452;2023-11-19T02:13:49;99291.81;;;4.03;79.58
43115;BME280;28727;50.068;14.452;2023-11-19T02:16:21;99276.84;;;4.05;79.31
43115;BME280;28727;50.068;14.452;2023-11-19T02:18:57;99271.47;;;4.07;79.05
43115;BME280;28727;50.068;14.452;2023-11-19T02:21:32;99257.00;;;4.03;79.49
43115;BME280;28727;50.068;14.452;2023-11-19T02:24:11;99246.84;;;4.00;80.21
43115;BME280;28727;50.068;14.452;2023-11-19T02:29:17;99239.56;;;4.03;80.20
43115;BME280;28727;50.068;14.452;2023-11-19T02:31:49;99235.47;;;4.10;79.64
43115;BME280;28727;50.068;14.452;2023-11-19T02:34:21;99239.34;;;4.16;79.77
43115;BME280;28727;50.068;14.452;2023-11-19T02:36:53;99243.63;;;4.17;79.71
43115;BME280;28727;50.068;14.452;2023-11-19T02:39:28;99243.75;;;4.16;79.59
43115;BME280;28727;50.068;14.452;2023-11-19T02:42:00;99227.78;;;4.19;79.89
43115;BME280;28727;50.068;14.452;2023-11-19T02:44:44;99235.50;;;4.20;79.83
43115;BME280;28727;50.068;14.452;2023-11-19T02:47:16;99244.16;;;4.21;79.10
43115;BME280;28727;50.068;14.452;2023-11-19T02:49:48;99227.22;;;4.15;80.05
43115;BME280;28727;50.068;14.452;2023-11-19T02:52:21;99224.50;;;4.17;80.01
43115;BME280;28727;50.068;14.452;2023-11-19T02:54:53;99224.38;;;4.18;79.70
43115;BME280;28727;50.068;14.452;2023-11-19T02:57:25;99217.84;;;4.12;79.96
43115;BME280;28727;50.068;14.452;2023-11-19T02:59:57;99202.16;;;4.12;79.08
43115;BME280;28727;50.068;14.452;2023-11-19T03:02:40;99193.22;;;4.05;80.35
43115;BME280;28727;50.068;14.452;2023-11-19T03:05:17;99193.91;;;4.07;80.25
43115;BME280;28727;50.068;14.452;2023-11-19T03:07:51;99203.41;;;4.08;80.17
43115;BME280;28727;50.068;14.452;2023-11-19T03:10:31;99196.81;;;4.14;79.73
43115;BME280;28727;50.068;14.452;2023-11-19T03:13:03;99180.44;;;4.12;80.25
43115;BME280;28727;50.068;14.452;2023-11-19T03:15:35;99172.47;;;4.13;80.11
43115;BME280;28727;50.068;14.452;2023-11-19T03:18:07;99158.72;;;4.11;79.70
43115;BME280;28727;50.068;14.452;2023-11-19T03:20:44;99161.16;;;4.03;80.90
43115;BME280;28727;50.068;14.452;2023-11-19T03:23:18;99149.88;;;4.03;80.21
43115;BME280;28727;50.068;14.452;2023-11-19T03:25:57;99146.44;;;4.02;80.20
43115;BME280;28727;50.068;14.452;2023-11-19T03:28:29;99150.28;;;3.98;81.22
43115;BME280;28727;50.068;14.452;2023-11-19T03:31:11;99134.19;;;4.03;80.70
43115;BME280;28727;50.068;14.452;2023-11-19T03:33:46;99139.41;;;4.03;80.85
43115;BME280;28727;50.068;14.452;2023-11-19T03:36:18;99136.94;;;4.01;80.64
43115;BME280;28727;50.068;14.452;2023-11-19T03:38:50;99128.72;;;4.06;80.51
43115;BME280;28727;50.068;14.452;2023-11-19T03:41:22;99124.28;;;4.06;80.82
43115;BME280;28727;50.068;14.452;2023-11-19T03:43:54;99108.59;;;4.06;81.27
43115;BME280;28727;50.068;14.452;2023-11-19T03:46:28;99103.84;;;4.11;80.89
43115;BME280;28727;50.068;14.452;2023-11-19T03:49:11;99104.91;;;4.09;80.88
43115;BME280;28727;50.068;14.452;2023-11-19T03:51:50;99111.25;;;4.16;80.40
43115;BME280;28727;50.068;14.452;2023-11-19T03:54:21;99102.31;;;4.19;80.28
43115;BME280;28727;50.068;14.452;2023-11-19T03:56:58;99095.72;;;4.15;80.61
43115;BME280;28727;50.068;14.452;2023-11-19T03:59:34;99093.38;;;4.11;80.33
43115;BME280;28727;50.068;14.452;2023-11-19T04:02:10;99095.16;;;4.11;81.22
43115;BME280;28727;50.068;14.452;2023-11-19T04:04:45;99097.50;;;4.14;80.83
43115;BME280;28727;50.068;14.452;2023-11-19T04:07:17;99090.19;;;4.08;81.50
43115;BME280;28727;50.068;14.452;2023-11-19T04:09:50;99089.94;;;4.11;81.04
43115;BME280;28727;50.068;14.452;2023-11-19T04:12:22;99079.47;;;4.11;80.97
43115;BME280;28727;50.068;14.452;2023-11-19T04:14:54;99067.38;;;4.10;81.01
43115;BME280;28727;50.068;14.452;2023-11-19T04:17:30;99061.19;;;4.11;81.44
43115;BME280;28727;50.068;14.452;2023-11-19T04:20:02;99062.69;;;4.13;81.38
43115;BME280;28727;50.068;14.452;2023-11-19T04:22:35;99058.28;;;4.14;81.80
43115;BME280;28727;50.068;14.452;2023-11-19T04:25:08;99057.47;;;4.13;81.68
43115;BME280;28727;50.068;14.452;2023-11-19T04:27:40;99045.22;;;4.14;81.45
43115;BME280;28727;50.068;14.452;2023-11-19T04:30:16;99037.94;;;4.18;81.81
43115;BME280;28727;50.068;14.452;2023-11-19T04:32:48;99032.31;;;4.22;81.49
43115;BME280;28727;50.068;14.452;2023-11-19T04:35:20;99021.16;;;4.20;82.33
43115;BME280;28727;50.068;14.452;2023-11-19T04:37:52;99034.78;;;4.24;81.48
43115;BME280;28727;50.068;14.452;2023-11-19T04:40:25;99026.78;;;4.25;81.87
43115;BME280;28727;50.068;14.452;2023-11-19T04:42:57;99015.50;;;4.25;81.85
43115;BME280;28727;50.068;14.452;2023-11-19T04:45:29;99009.59;;;4.23;81.41
43115;BME280;28727;50.068;14.452;2023-11-19T04:48:01;99007.25;;;4.20;82.38
43115;BME280;28727;50.068;14.452;2023-11-19T04:50:33;99004.22;;;4.24;82.33
43115;BME280;28727;50.068;14.452;2023-11-19T04:53:04;98999.56;;;4.28;82.69
43115;BME280;28727;50.068;14.452;2023-11-19T04:55:36;98984.84;;;4.27;82.27
43115;BME280;28727;50.068;14.452;2023-11-19T04:58:08;98965.16;;;4.23;82.45
43115;BME280;28727;50.068;14.452;2023-11-19T05:00:43;98950.31;;;4.23;83.14
43115;BME280;28727;50.068;14.452;2023-11-19T05:03:15;98961.84;;;4.21;83.37
43115;BME280;28727;50.068;14.452;2023-11-19T05:05:47;98949.50;;;4.23;83.00
43115;BME280;28727;50.068;14.452;2023-11-19T05:08:19;98953.88;;;4.22;82.94
43115;BME280;28727;50.068;14.452;2023-11-19T05:10:51;98952.53;;;4.18;83.24
43115;BME280;28727;50.068;14.452;2023-11-19T05:13:23;98938.63;;;4.18;83.08
43115;BME280;28727;50.068;14.452;2023-11-19T05:15:55;98945.22;;;4.22;82.95
43115;BME280;28727;50.068;14.452;2023-11-19T05:18:26;98936.97;;;4.17;83.55
43115;BME280;28727;50.068;14.452;2023-11-19T05:20:58;98937.94;;;4.16;83.11
43115;BME280;28727;50.068;14.452;2023-11-19T05:23:30;98938.06;;;4.14;82.65
43115;BME280;28727;50.068;14.452;2023-11-19T05:26:02;98948.94;;;4.09;83.85
43115;BME280;28727;50.068;14.452;2023-11-19T05:28:38;98937.41;;;4.12;83.22
43115;BME280;28727;50.068;14.452;2023-11-19T05:31:15;98936.41;;;4.13;84.05
43115;BME280;28727;50.068;14.452;2023-11-19T05:33:47;98918.81;;;4.15;83.97
43115;BME280;28727;50.068;14.452;2023-11-19T05:36:19;98909.03;;;4.17;84.05
43115;BME280;28727;50.068;14.452;2023-11-19T05:38:51;98905.19;;;4.21;83.34
43115;BME280;28727;50.068;14.452;2023-11-19T05:41:22;98907.66;;;4.23;83.43
43115;BME280;28727;50.068;14.452;2023-11-19T05:43:54;98902.13;;;4.26;83.37
43115;BME280;28727;50.068;14.452;2023-11-19T05:46:27;98904.31;;;4.30;83.53
43115;BME280;28727;50.068;14.452;2023-11-19T05:48:59;98897.88;;;4.34;83.24
43115;BME280;28727;50.068;14.452;2023-11-19T05:51:30;98900.19;;;4.37;83.34
43115;BME280;28727;50.068;14.452;2023-11-19T05:54:02;98900.06;;;4.39;83.31
43115;BME280;28727;50.068;14.452;2023-11-19T05:56:34;98903.38;;;4.41;83.09
43115;BME280;28727;50.068;14.452;2023-11-19T05:59:06;98898.28;;;4.39;84.13
43115;BME280;28727;50.068;14.452;2023-11-19T06:01:47;98885.91;;;4.41;84.22
43115;BME280;28727;50.068;14.452;2023-11-19T06:04:18;98885.72;;;4.43;83.53
43115;BME280;28727;50.068;14.452;2023-11-19T06:06:50;98879.84;;;4.41;84.61
43115;BME280;28727;50.068;14.452;2023-11-19T06:09:22;98869.09;;;4.44;84.66
43115;BME280;28727;50.068;14.452;2023-11-19T06:11:57;98870.03;;;4.43;84.27
43115;BME280;28727;50.068;14.452;2023-11-19T06:14:29;98862.06;;;4.44;83.86
43115;BME280;28727;50.068;14.452;2023-11-19T06:17:05;98869.66;;;4.47;83.87
43115;BME280;28727;50.068;14.452;2023-11-19T06:19:37;98867.56;;;4.51;84.46
43115;BME280;28727;50.068;14.452;2023-11-19T06:22:14;98879.53;;;4.53;84.43
43115;BME280;28727;50.068;14.452;2023-11-19T06:24:46;98883.38;;;4.59;84.28
43115;BME280;28727;50.068;14.452;2023-11-19T06:27:19;98863.94;;;4.62;83.71
43115;BME280;28727;50.068;14.452;2023-11-19T06:29:51;98862.16;;;4.62;84.19
43115;BME280;28727;50.068;14.452;2023-11-19T06:32:23;98853.59;;;4.70;83.89
43115;BME280;28727;50.068;14.452;2023-11-19T06:34:54;98857.56;;;4.74;83.80
43115;BME280;28727;50.068;14.452;2023-11-19T06:37:31;98860.44;;;4.80;83.67
43115;BME280;28727;50.068;14.452;2023-11-19T06:40:03;98865.53;;;4.82;84.05
43115;BME280;28727;50.068;14.452;2023-11-19T06:42:46;98854.47;;;4.88;83.59
43115;BME280;28727;50.068;14.452;2023-11-19T06:45:18;98851.56;;;4.91;83.48
43115;BME280;28727;50.068;14.452;2023-11-19T06:48:11;98851.56;;;4.91;83.66
43115;BME280;28727;50.068;14.452;2023-11-19T06:50:43;98855.81;;;4.92;83.46
43115;BME280;28727;50.068;14.452;2023-11-19T06:53:15;98867.94;;;4.93;83.37
43115;BME280;28727;50.068;14.452;2023-11-19T06:55:47;98860.09;;;4.93;83.41
43115;BME280;28727;50.068;14.452;2023-11-19T06:58:18;98852.25;;;4.93;83.71
43115;BME280;28727;50.068;14.452;2023-11-19T07:00:50;98844.41;;;4.93;84.04
43115;BME280;28727;50.068;14.452;2023-11-19T07:03:23;98852.63;;;4.98;84.13
43115;BME280;28727;50.068;14.452;2023-11-19T07:05:56;98835.97;;;4.99;83.99
43115;BME280;28727;50.068;14.452;2023-11-19T07:08:29;98846.81;;;5.04;83.77
43115;BME280;28727;50.068;14.452;2023-11-19T07:11:11;98844.06;;;5.06;84.27
43115;BME280;28727;50.068;14.452;2023-11-19T07:13:46;98849.28;;;5.06;83.75
43115;BME280;28727;50.068;14.452;2023-11-19T07:16:18;98838.50;;;5.09;83.40
43115;BME280;28727;50.068;14.452;2023-11-19T07:18:53;98852.81;;;5.14;83.66
43115;BME280;28727;50.068;14.452;2023-11-19T07:21:29;98851.16;;;5.13;83.21
43115;BME280;28727;50.068;14.452;2023-11-19T07:24:02;98849.22;;;5.15;83.28
43115;BME280;28727;50.068;14.452;2023-11-19T07:26:55;98842.19;;;5.16;83.21
43115;BME280;28727;50.068;14.452;2023-11-19T07:29:27;98840.09;;;5.19;83.05
43115;BME280;28727;50.068;14.452;2023-11-19T07:32:00;98843.84;;;5.17;83.69
43115;BME280;28727;50.068;14.452;2023-11-19T07:34:34;98834.03;;;5.19;82.86
43115;BME280;28727;50.068;14.452;2023-11-19T07:37:05;98834.72;;;5.21;83.20
43115;BME280;28727;50.068;14.452;2023-11-19T07:39:41;98839.69;;;5.24;82.99
43115;BME280;28727;50.068;14.452;2023-11-19T07:42:13;98832.09;;;5.21;83.68
43115;BME280;28727;50.068;14.452;2023-11-19T07:44:45;98842.31;;;5.24;83.84
43115;BME280;28727;50.068;14.452;2023-11-19T07:47:17;98834.97;;;5.27;83.44
43115;BME280;28727;50.068;14.452;2023-11-19T07:49:58;98840.47;;;5.24;83.39
43115;BME280;28727;50.068;14.452;2023-11-19T07:52:30;98838.69;;;5.25;83.76
43115;BME280;28727;50.068;14.452;2023-11-19T07:55:07;98855.47;;;5.32;83.90
43115;BME280;28727;50.068;14.452;2023-11-19T07:57:40;98835.06;;;5.35;83.90
43115;BME280;28727;50.068;14.452;2023-11-19T08:00:12;98840.81;;;5.39;83.73
43115;BME280;28727;50.068;14.452;2023-11-19T08:02:44;98837.47;;;5.47;83.43
43115;BME280;28727;50.068;14.452;2023-11-19T08:05:17;98827.13;;;5.45;83.56
43115;BME280;28727;50.068;14.452;2023-11-19T08:07:52;98840.50;;;5.42;83.62
43115;BME280;28727;50.068;14.452;2023-11-19T08:10:24;98820.22;;;5.44;83.29
43115;BME280;28727;50.068;14.452;2023-11-19T08:13:07;98826.81;;;5.48;83.74
43115;BME280;28727;50.068;14.452;2023-11-19T08:15:39;98825.69;;;5.51;83.31
43115;BME280;28727;50.068;14.452;2023-11-19T08:18:12;98815.59;;;5.56;83.37
43115;BME280;28727;50.068;14.452;2023-11-19T08:20:45;98810.81;;;5.51;83.65
43115;BME280;28727;50.068;14.452;2023-11-19T08:23:28;98814.31;;;5.60;86.35
43115;BME280;28727;50.068;14.452;2023-11-19T08:26:00;98814.75;;;5.73;85.20
43115;BME280;28727;50.068;14.452;2023-11-19T08:28:32;98808.88;;;5.89;84.89
43115;BME280;28727;50.068;14.452;2023-11-19T08:31:06;98799.69;;;6.10;85.46
43115;BME280;28727;50.068;14.452;2023-11-19T08:33:38;98782.84;;;6.21;83.16
43115;BME280;28727;50.068;14.452;2023-11-19T08:36:15;98782.09;;;6.29;83.76
43115;BME280;28727;50.068;14.452;2023-11-19T08:38:48;98783.63;;;6.39;82.50
43115;BME280;28727;50.068;14.452;2023-11-19T08:41:27;98782.72;;;6.56;83.32
43115;BME280;28727;50.068;14.452;2023-11-19T08:43:59;98787.34;;;6.63;82.11
43115;BME280;28727;50.068;14.452;2023-11-19T08:46:35;98791.28;;;6.67;81.94
43115;BME280;28727;50.068;14.452;2023-11-19T08:49:11;98789.53;;;6.75;81.17
43115;BME280;28727;50.068;14.452;2023-11-19T08:51:43;98791.31;;;6.75;81.31
43115;BME280;28727;50.068;14.452;2023-11-19T08:54:16;98790.19;;;6.77;80.33
43115;BME280;28727;50.068;14.452;2023-11-19T08:56:48;98789.53;;;6.83;80.22
43115;BME280;28727;50.068;14.452;2023-11-19T08:59:20;98790.84;;;6.79;80.04
43115;BME280;28727;50.068;14.452;2023-11-19T09:01:52;98794.78;;;6.83;80.31
43115;BME280;28727;50.068;14.452;2023-11-19T09:04:24;98796.44;;;6.84;80.18
43115;BME280;28727;50.068;14.452;2023-11-19T09:06:57;98805.19;;;6.93;80.71
43115;BME280;28727;50.068;14.452;2023-11-19T09:09:29;98796.66;;;6.99;80.55
43115;BME280;28727;50.068;14.452;2023-11-19T09:12:02;98798.66;;;7.05;80.87
43115;BME280;28727;50.068;14.452;2023-11-19T09:14:35;98798.19;;;7.18;82.07
43115;BME280;28727;50.068;14.452;2023-11-19T09:17:08;98794.28;;;7.30;80.38
43115;BME280;28727;50.068;14.452;2023-11-19T09:19:41;98790.34;;;7.34;79.76
43115;BME280;28727;50.068;14.452;2023-11-19T09:22:13;98794.44;;;7.36;79.77
43115;BME280;28727;50.068;14.452;2023-11-19T09:24:46;98789.69;;;7.40;79.26
43115;BME280;28727;50.068;14.452;2023-11-19T09:27:17;98793.97;;;7.41;79.13
43115;BME280;28727;50.068;14.452;2023-11-19T09:29:50;98771.13;;;7.50;79.61
43115;BME280;28727;50.068;14.452;2023-11-19T09:32:28;98772.28;;;7.63;79.37
43115;BME280;28727;50.068;14.452;2023-11-19T09:35:00;98778.88;;;7.75;78.92
43115;BME280;28727;50.068;14.452;2023-11-19T09:37:32;98785.91;;;7.91;80.38
43115;BME280;28727;50.068;14.452;2023-11-19T09:40:05;98790.16;;;8.08;79.03
43115;BME280;28727;50.068;14.452;2023-11-19T09:42:43;98785.72;;;8.17;79.17
43115;BME280;28727;50.068;14.452;2023-11-19T09:45:20;98780.47;;;8.17;78.04
43115;BME280;28727;50.068;14.452;2023-11-19T09:47:53;98782.28;;;8.16;78.69
43115;BME280;28727;50.068;14.452;2023-11-19T09:50:26;98776.19;;;8.16;78.45
43115;BME280;28727;50.068;14.452;2023-11-19T09:52:58;98775.00;;;8.27;79.26
43115;BME280;28727;50.068;14.452;2023-11-19T09:55:30;98761.88;;;8.35;78.30
43115;BME280;28727;50.068;14.452;2023-11-19T09:58:03;98768.28;;;8.40;79.27
43115;BME280;28727;50.068;14.452;2023-11-19T10:00:35;98762.31;;;8.85;78.62
43115;BME280;28727;50.068;14.452;2023-11-19T10:03:10;98756.13;;;9.32;77.63
43115;BME280;28727;50.068;14.452;2023-11-19T10:05:44;98765.03;;;9.54;76.47
43115;BME280;28727;50.068;14.452;2023-11-19T10:08:16;98747.72;;;9.74;75.71
43115;BME280;28727;50.068;14.452;2023-11-19T10:10:49;98744.84;;;9.83;76.74
43115;BME280;28727;50.068;14.452;2023-11-19T10:13:26;98736.66;;;9.93;75.09
43115;BME280;28727;50.068;14.452;2023-11-19T10:16:12;98738.47;;;10.59;74.56
43115;BME280;28727;50.068;14.452;2023-11-19T10:18:46;98731.53;;;11.52;73.62
43115;BME280;28727;50.068;14.452;2023-11-19T10:21:18;98727.03;;;12.63;69.15
43115;BME280;28727;50.068;14.452;2023-11-19T10:23:52;98728.72;;;13.58;66.24
43115;BME280;28727;50.068;14.452;2023-11-19T10:26:24;98719.47;;;14.53;63.32
43115;BME280;28727;50.068;14.452;2023-11-19T10:28:56;98713.88;;;15.43;58.99
43115;BME280;28727;50.068;14.452;2023-11-19T10:31:28;98716.47;;;16.06;55.98
43115;BME280;28727;50.068;14.452;2023-11-19T10:34:00;98710.00;;;16.57;58.71
43115;BME280;28727;50.068;14.452;2023-11-19T10:36:39;98699.69;;;17.38;54.02
43115;BME280;28727;50.068;14.452;2023-11-19T10:39:14;98690.84;;;17.91;51.69
43115;BME280;28727;50.068;14.452;2023-11-19T10:41:45;98688.88;;;17.98;51.91
43115;BME280;28727;50.068;14.452;2023-11-19T10:44:33;98677.50;;;17.91;51.82
43115;BME280;28727;50.068;14.452;2023-11-19T10:47:08;98679.00;;;17.64;51.15
43115;BME280;28727;50.068;14.452;2023-11-19T10:49:41;98684.63;;;17.44;51.66
43115;BME280;28727;50.068;14.452;2023-11-19T10:52:17;98695.03;;;17.34;51.59
43115;BME280;28727;50.068;14.452;2023-11-19T10:54:51;98692.44;;;17.15;52.48
43115;BME280;28727;50.068;14.452;2023-11-19T10:57:27;98686.25;;;17.03;53.32
43115;BME280;28727;50.068;14.452;2023-11-19T11:00:02;98683.38;;;16.87;53.34
43115;BME280;28727;50.068;14.452;2023-11-19T11:02:45;98683.34;;;16.75;53.31
43115;BME280;28727;50.068;14.452;2023-11-19T11:05:21;98674.97;;;16.53;53.93
43115;BME280;28727;50.068;14.452;2023-11-19T11:07:56;98669.63;;;16.35;54.96
43115;BME280;28727;50.068;14.452;2023-11-19T11:10:30;98669.72;;;16.65;55.22
43115;BME280;28727;50.068;14.452;2023-11-19T11:13:06;98663.50;;;17.01;54.24
43115;BME280;28727;50.068;14.452;2023-11-19T11:15:40;98673.06;;;16.78;54.06
43115;BME280;28727;50.068;14.452;2023-11-19T11:18:14;98664.41;;;16.65;54.75
43115;BME280;28727;50.068;14.452;2023-11-19T11:20:46;98660.94;;;16.94;54.25
43115;BME280;28727;50.068;14.452;2023-11-19T11:32:31;98653.81;;;18.06;50.57
43115;BME280;28727;50.068;14.452;2023-11-19T11:39:49;98655.53;;;18.24;50.74
43115;BME280;28727;50.068;14.452;2023-11-19T11:45:03;98657.63;;;18.22;50.25
43115;BME280;28727;50.068;14.452;2023-11-19T11:50:19;98653.47;;;18.66;48.69
43115;BME280;28727;50.068;14.452;2023-11-19T11:58:30;98656.28;;;18.59;48.71
43115;BME280;28727;50.068;14.452;2023-11-19T12:01:05;98645.78;;;18.69;48.12
43115;BME280;28727;50.068;14.452;2023-11-19T12:03:37;98657.53;;;18.68;48.10
43115;BME280;28727;50.068;14.452;2023-11-19T12:06:10;98643.88;;;18.41;48.55
43115;BME280;28727;50.068;14.452;2023-11-19T12:08:43;98653.63;;;18.48;49.62
43115;BME280;28727;50.068;14.452;2023-11-19T12:11:18;98652.13;;;18.40;49.37
43115;BME280;28727;50.068;14.452;2023-11-19T12:14:01;98635.91;;;18.07;48.90
43115;BME280;28727;50.068;14.452;2023-11-19T12:16:34;98641.47;;;17.58;52.68
43115;BME280;28727;50.068;14.452;2023-11-19T12:19:09;98643.28;;;17.35;52.91
43115;BME280;28727;50.068;14.452;2023-11-19T12:21:41;98638.69;;;17.00;50.89
43115;BME280;28727;50.068;14.452;2023-11-19T12:24:13;98639.22;;;16.43;51.98
43115;BME280;28727;50.068;14.452;2023-11-19T12:26:46;98637.53;;;15.69;53.18
43115;BME280;28727;50.068;14.452;2023-11-19T12:29:21;98644.50;;;15.13;55.06
43115;BME280;28727;50.068;14.452;2023-11-19T12:31:54;98644.44;;;14.89;56.39
43115;BME280;28727;50.068;14.452;2023-11-19T12:34:45;98639.13;;;14.44;57.71
43115;BME280;28727;50.068;14.452;2023-11-19T12:37:17;98628.75;;;14.29;58.39
43115;BME280;28727;50.068;14.452;2023-11-19T12:39:49;98625.59;;;14.01;59.13
43115;BME280;28727;50.068;14.452;2023-11-19T12:42:21;98614.16;;;13.87;59.94
43115;BME280;28727;50.068;14.452;2023-11-19T12:44:55;98618.91;;;13.72;60.56
43115;BME280;28727;50.068;14.452;2023-11-19T12:47:27;98614.81;;;13.63;60.47
43115;BME280;28727;50.068;14.452;2023-11-19T12:49:59;98610.75;;;13.61;61.12
43115;BME280;28727;50.068;14.452;2023-11-19T12:52:31;98610.31;;;13.77;61.26
43115;BME280;28727;50.068;14.452;2023-11-19T12:55:04;98603.38;;;13.76;61.25
43115;BME280;28727;50.068;14.452;2023-11-19T12:57:41;98608.69;;;13.63;61.64
43115;BME280;28727;50.068;14.452;2023-11-19T13:00:25;98626.47;;;13.42;62.17
43115;BME280;28727;50.068;14.452;2023-11-19T13:02:57;98630.97;;;13.29;62.78
43115;BME280;28727;50.068;14.452;2023-11-19T13:05:32;98620.94;;;13.11;63.43
43115;BME280;28727;50.068;14.452;2023-11-19T13:08:08;98620.53;;;13.07;63.62
43115;BME280;28727;50.068;14.452;2023-11-19T13:10:51;98611.50;;;13.02;64.03
43115;BME280;28727;50.068;14.452;2023-11-19T13:13:23;98604.81;;;12.99;63.90
43115;BME280;28727;50.068;14.452;2023-11-19T13:16:03;98601.94;;;12.94;64.82
43115;BME280;28727;50.068;14.452;2023-11-19T13:18:37;98593.16;;;12.87;64.96
43115;BME280;28727;50.068;14.452;2023-11-19T13:21:11;98593.34;;;12.86;65.07
43115;BME280;28727;50.068;14.452;2023-11-19T13:23:44;98602.31;;;12.85;64.90
43115;BME280;28727;50.068;14.452;2023-11-19T13:26:17;98601.09;;;12.74;65.91
43115;BME280;28727;50.068;14.452;2023-11-19T13:28:49;98594.78;;;12.75;65.77
43115;BME280;28727;50.068;14.452;2023-11-19T13:31:21;98592.91;;;12.69;66.19
43115;BME280;28727;50.068;14.452;2023-11-19T13:33:54;98587.63;;;12.69;66.50
43115;BME280;28727;50.068;14.452;2023-11-19T13:36:26;98588.25;;;12.71;66.54
43115;BME280;28727;50.068;14.452;2023-11-19T13:38:58;98581.31;;;12.77;66.18
43115;BME280;28727;50.068;14.452;2023-11-19T13:41:31;98581.94;;;12.72;66.88
43115;BME280;28727;50.068;14.452;2023-11-19T13:44:02;98588.25;;;12.71;67.46
43115;BME280;28727;50.068;14.452;2023-11-19T13:46:34;98577.66;;;12.71;67.69
43115;BME280;28727;50.068;14.452;2023-11-19T13:49:06;98578.25;;;12.73;67.14
43115;BME280;28727;50.068;14.452;2023-11-19T13:51:39;98577.66;;;12.84;68.77
43115;BME280;28727;50.068;14.452;2023-11-19T13:54:11;98584.19;;;12.88;67.43
43115;BME280;28727;50.068;14.452;2023-11-19T13:56:46;98581.53;;;12.82;67.39
43115;BME280;28727;50.068;14.452;2023-11-19T13:59:19;98589.88;;;12.72;67.79